createdAt,value
2019-06-20T08:24:55.598Z,22.861938
2019-06-20T08:25:54.617Z,23.194275
2019-06-20T08:26:54.621Z,23.526611
2019-06-20T08:27:54.611Z,23.919373
2019-06-20T08:29:08.111Z,24.241638
2019-06-20T08:29:55.125Z,24.523621
2019-06-20T08:30:54.918Z,24.835815
2019-06-20T08:31:54.886Z,25.067444
2019-06-20T08:32:54.825Z,25.309143
2019-06-20T08:33:54.783Z,25.611267
2019-06-20T08:34:54.859Z,25.852966
2019-06-20T08:35:54.863Z,26.014099
2019-06-20T08:36:54.556Z,26.185303
2019-06-20T08:37:54.688Z,26.316223
2019-06-20T08:38:54.591Z,26.467285
2019-06-20T08:39:54.484Z,26.588135
2019-06-20T08:40:54.405Z,26.708984
2019-06-20T08:41:54.388Z,26.870117
2019-06-20T08:42:54.167Z,27.03125
2019-06-20T08:43:54.204Z,27.1521
2019-06-20T08:44:54.084Z,27.383728
2019-06-20T08:45:54.011Z,27.615356
2019-06-20T08:46:54.065Z,27.826843
2019-06-20T08:47:54.339Z,27.957764
2019-06-20T08:48:53.934Z,28.108826
2019-06-20T08:49:53.932Z,28.149109
2019-06-20T08:50:54.637Z,28.269958
2019-06-20T08:51:53.597Z,28.421021
2019-06-20T08:52:53.770Z,28.572083
2019-06-20T08:53:53.491Z,28.551941
2019-06-20T08:54:53.429Z,28.551941
2019-06-20T08:55:53.280Z,28.602295
2019-06-20T08:56:53.264Z,28.652649
2019-06-20T08:57:53.379Z,28.551941
2019-06-20T08:58:52.978Z,28.511658
2019-06-20T08:59:53.002Z,28.501587
2019-06-20T09:00:53.043Z,28.481445
2019-06-20T09:01:53.140Z,28.421021
2019-06-20T09:02:52.628Z,28.269958
2019-06-20T09:03:52.573Z,28.330383
2019-06-20T09:04:52.371Z,28.390808
2019-06-20T09:05:52.341Z,28.390808
2019-06-20T09:06:52.333Z,28.511658
2019-06-20T09:07:52.172Z,28.612366
2019-06-20T09:08:52.384Z,28.652649
2019-06-20T09:09:51.982Z,28.622437
2019-06-20T09:10:51.912Z,28.602295
2019-06-20T09:11:52.755Z,28.501587
2019-06-20T09:12:51.570Z,28.431091
2019-06-20T09:13:51.479Z,28.380737
2019-06-20T09:14:51.347Z,28.300171
2019-06-20T09:15:51.159Z,28.249817
2019-06-20T09:16:51.047Z,28.209534
2019-06-20T09:17:50.860Z,28.139038
2019-06-20T09:18:51.097Z,28.088684
2019-06-20T09:19:50.616Z,28.028259
2019-06-20T09:20:50.350Z,27.987976
2019-06-20T09:21:50.368Z,27.987976
2019-06-20T09:22:51.205Z,27.957764
2019-06-20T09:23:50.119Z,27.897339
2019-06-20T09:24:50.904Z,27.836914
2019-06-20T09:25:49.712Z,27.826843
2019-06-20T09:26:49.809Z,27.796631
2019-06-20T09:27:50.536Z,27.826843
2019-06-20T09:28:49.558Z,27.796631
2019-06-20T09:29:50.447Z,27.897339
2019-06-20T09:30:49.426Z,28.018188
2019-06-20T09:31:50.292Z,28.128967
2019-06-20T09:32:50.142Z,28.269958
2019-06-20T09:33:50.049Z,28.400879
2019-06-20T09:34:48.947Z,28.511658
2019-06-20T09:35:49.857Z,28.582153
2019-06-20T09:36:49.739Z,28.733215
2019-06-20T09:37:49.552Z,28.884277
2019-06-20T09:38:49.552Z,28.974915
2019-06-20T09:39:49.384Z,29.065552
2019-06-20T09:40:49.294Z,29.075623
2019-06-20T09:41:48.999Z,29.075623
2019-06-20T09:42:49.014Z,29.115906
2019-06-20T09:43:48.757Z,29.196472
2019-06-20T09:44:48.682Z,29.41803
2019-06-20T09:45:48.480Z,29.639587
2019-06-20T09:46:48.361Z,29.790649
2019-06-20T09:47:48.285Z,29.820862
2019-06-20T09:48:48.197Z,29.861145
2019-06-20T09:49:49.503Z,29.820862
2019-06-20T09:50:46.747Z,29.780579
2019-06-20T09:51:46.581Z,29.710083
2019-06-20T09:52:46.977Z,29.689941
2019-06-20T09:53:46.258Z,29.629517
2019-06-20T09:54:46.352Z,29.629517
2019-06-20T09:55:46.087Z,29.639587
2019-06-20T09:56:47.457Z,29.639587
2019-06-20T09:57:46.081Z,29.569092
2019-06-20T09:58:45.618Z,29.468384
2019-06-20T10:00:45.309Z,29.287109
2019-06-20T10:01:45.296Z,29.206543
2019-06-20T10:02:45.195Z,29.115906
2019-06-20T10:03:44.957Z,29.025269
2019-06-20T10:04:44.864Z,28.944702
2019-06-20T10:05:44.646Z,28.894348
2019-06-20T10:06:44.646Z,28.803711
2019-06-20T10:07:44.539Z,28.723145
2019-06-20T10:08:44.490Z,28.672791
2019-06-20T10:09:44.458Z,28.612366
2019-06-20T10:10:44.324Z,28.582153
2019-06-20T10:11:44.145Z,28.551941
2019-06-20T10:12:44.049Z,28.511658
2019-06-20T10:13:43.901Z,28.501587
2019-06-20T10:14:43.951Z,28.461304
2019-06-20T10:15:43.729Z,28.421021
2019-06-20T10:16:46.140Z,28.330383
2019-06-20T10:18:44.562Z,28.360596
2019-06-20T10:19:44.345Z,28.350525
2019-06-20T10:20:43.272Z,28.380737
2019-06-20T10:21:44.064Z,28.360596
2019-06-20T10:22:43.012Z,28.320312
2019-06-20T10:23:43.992Z,28.330383
2019-06-20T10:24:43.741Z,28.320312
2019-06-20T10:25:43.875Z,28.300171
2019-06-20T10:26:43.743Z,28.280029
2019-06-20T10:27:43.578Z,28.239746
2019-06-20T10:28:43.375Z,28.199463
2019-06-20T10:29:43.317Z,28.149109
2019-06-20T10:30:43.242Z,28.128967
2019-06-20T10:31:43.277Z,28.108826
2019-06-20T10:32:43.063Z,28.078613
2019-06-20T10:33:42.999Z,28.048401
2019-06-20T10:34:42.886Z,28.048401
2019-06-20T10:35:42.947Z,28.058472
2019-06-20T10:36:42.576Z,28.078613
2019-06-20T10:37:42.679Z,28.088684
2019-06-20T10:38:42.639Z,28.128967
2019-06-20T10:39:42.372Z,28.16925
2019-06-20T10:40:42.470Z,28.239746
2019-06-20T10:41:42.284Z,28.320312
2019-06-20T10:42:42.238Z,28.390808
2019-06-20T10:43:41.963Z,28.451233
2019-06-20T10:44:41.835Z,28.511658
2019-06-20T10:45:41.761Z,28.602295
2019-06-20T10:46:41.774Z,28.582153
2019-06-20T10:47:40.910Z,28.602295
2019-06-20T10:48:40.394Z,28.622437
2019-06-20T10:49:40.425Z,28.622437
2019-06-20T10:50:39.954Z,28.642578
2019-06-20T10:51:39.820Z,28.652649
2019-06-20T10:52:39.900Z,28.672791
2019-06-20T10:53:41.749Z,28.642578
2019-06-20T10:54:39.537Z,28.572083
2019-06-20T10:55:39.265Z,28.501587
2019-06-20T10:56:39.182Z,28.521729
2019-06-20T10:57:38.993Z,28.622437
2019-06-20T10:58:38.851Z,28.723145
2019-06-20T10:59:38.798Z,28.79364
2019-06-20T11:00:38.593Z,28.833923
2019-06-20T11:01:38.830Z,28.854065
2019-06-20T11:02:39.393Z,28.984985
2019-06-20T11:03:38.145Z,29.04541
2019-06-20T11:04:38.097Z,29.246826
2019-06-20T11:05:37.987Z,29.448242
2019-06-20T11:06:37.862Z,29.629517
2019-06-20T11:07:37.769Z,29.740295
2019-06-20T11:08:37.669Z,29.730225
2019-06-20T11:09:37.470Z,29.760437
2019-06-20T11:10:37.403Z,29.951782
2019-06-20T11:11:37.194Z,30.153198
2019-06-20T11:12:43.557Z,30.263977
2019-06-20T11:13:36.866Z,30.30426
2019-06-20T11:14:36.603Z,30.30426
2019-06-20T11:15:36.431Z,30.30426
2019-06-20T11:16:37.362Z,30.30426
2019-06-20T11:17:36.408Z,30.263977
2019-06-20T11:18:36.012Z,30.233765
2019-06-20T11:19:35.959Z,30.183411
2019-06-20T11:20:36.781Z,30.112915
2019-06-20T11:21:35.800Z,30.042419
2019-06-20T11:22:35.571Z,29.992065
2019-06-20T11:23:35.407Z,29.911499
2019-06-20T11:24:35.320Z,29.820862
2019-06-20T11:25:35.826Z,29.740295
2019-06-20T11:26:35.564Z,29.710083
2019-06-20T11:27:34.878Z,29.851074
2019-06-20T11:28:35.479Z,29.92157
2019-06-20T11:29:35.703Z,30.032349
2019-06-20T11:30:45.534Z,30.102844
2019-06-20T11:31:35.440Z,30.163269
2019-06-20T11:32:35.342Z,30.384827
2019-06-20T11:33:34.150Z,30.485535
2019-06-20T11:34:35.601Z,30.475464
2019-06-20T11:35:33.821Z,30.505676
2019-06-20T11:36:34.771Z,30.525818
2019-06-20T11:37:33.810Z,30.586243
2019-06-20T11:38:36.950Z,30.586243
2019-06-20T11:39:33.417Z,30.566101
2019-06-20T11:40:33.977Z,30.566101
2019-06-20T11:41:33.892Z,30.606384
2019-06-20T11:42:33.670Z,30.656738
2019-06-20T11:43:32.493Z,30.606384
2019-06-20T11:44:33.142Z,30.606384
2019-06-20T11:45:33.106Z,30.636597
2019-06-20T11:46:33.209Z,30.636597
2019-06-20T11:47:32.775Z,30.656738
2019-06-20T11:48:32.903Z,30.67688
2019-06-20T11:49:32.426Z,30.67688
2019-06-20T11:50:32.270Z,30.717163
2019-06-20T11:51:32.163Z,30.717163
2019-06-20T11:52:34.131Z,30.747375
2019-06-20T11:53:30.816Z,30.777588
2019-06-20T11:54:30.679Z,30.898438
2019-06-20T12:01:36.968Z,30.67688
2019-06-20T12:02:38.012Z,30.958862
2019-06-20T12:03:36.988Z,31.130066
2019-06-20T12:04:37.121Z,31.0495
2019-06-20T12:05:37.190Z,31.119995
2019-06-20T12:06:37.211Z,31.119995
2019-06-20T12:07:37.213Z,31.150208
2019-06-20T12:08:37.085Z,31.150208
2019-06-20T12:09:36.986Z,31.401978
2019-06-20T12:10:36.843Z,31.532898
2019-06-20T12:11:36.779Z,31.462402
2019-06-20T12:12:36.849Z,31.522827
2019-06-20T12:13:36.698Z,31.573181
2019-06-20T12:14:36.732Z,31.724243
2019-06-20T12:15:36.900Z,31.643677
2019-06-20T12:16:36.807Z,31.56311
2019-06-20T12:17:36.841Z,31.643677
2019-06-20T12:18:36.822Z,31.643677
2019-06-20T12:19:36.966Z,31.643677
2019-06-20T12:20:36.828Z,31.603394
2019-06-20T12:21:36.845Z,31.56311
2019-06-20T12:22:36.963Z,31.532898
2019-06-20T12:23:36.800Z,31.492615
2019-06-20T12:24:36.845Z,31.452332
2019-06-20T12:25:36.884Z,31.422119
2019-06-20T12:26:36.871Z,31.452332
2019-06-20T12:27:36.581Z,31.412048
2019-06-20T12:28:36.756Z,31.401978
2019-06-20T12:29:36.738Z,31.401978
2019-06-20T12:30:37.032Z,31.401978
2019-06-20T12:31:38.276Z,31.401978
2019-06-20T12:32:37.976Z,31.452332
2019-06-20T12:33:36.847Z,31.452332
2019-06-20T12:34:36.479Z,31.412048
2019-06-20T12:35:36.688Z,31.371765
2019-06-20T12:36:36.872Z,31.281128
2019-06-20T12:37:38.148Z,31.250916
2019-06-20T12:38:36.954Z,31.200562
2019-06-20T12:39:36.421Z,31.160278
2019-06-20T12:40:36.825Z,31.119995
2019-06-20T12:41:37.525Z,31.0495
2019-06-20T12:42:36.565Z,30.999146
2019-06-20T12:43:36.306Z,30.968933
2019-06-20T12:44:36.273Z,30.92865
2019-06-20T12:45:37.166Z,30.878296
2019-06-20T12:46:37.166Z,30.848083
2019-06-20T12:47:36.052Z,30.8078
2019-06-20T12:48:37.121Z,30.787659
2019-06-20T12:49:36.091Z,30.777588
2019-06-20T12:50:37.230Z,30.757446
2019-06-20T12:51:36.225Z,30.67688
2019-06-20T12:52:36.410Z,30.626526
2019-06-20T12:53:36.418Z,30.586243
2019-06-20T12:54:37.059Z,30.525818
2019-06-20T12:55:36.183Z,30.455322
2019-06-20T12:56:36.358Z,30.384827
2019-06-20T12:57:36.174Z,30.30426
2019-06-20T12:58:36.202Z,30.223694
2019-06-20T12:59:36.675Z,30.163269
2019-06-20T13:00:36.240Z,30.062561
2019-06-20T13:01:39.534Z,29.951782
2019-06-20T13:02:37.283Z,29.881287
2019-06-20T13:03:36.322Z,29.810791
2019-06-20T13:04:36.169Z,29.780579
2019-06-20T13:05:37.310Z,29.760437
2019-06-20T13:06:36.585Z,29.760437
2019-06-20T13:07:36.433Z,29.740295
2019-06-20T13:08:37.550Z,29.780579
2019-06-20T13:09:36.425Z,29.760437
2019-06-20T13:10:36.555Z,29.810791
2019-06-20T13:11:36.593Z,29.780579
2019-06-20T13:12:38.459Z,29.760437
2019-06-20T13:13:36.666Z,29.760437
2019-06-20T13:14:37.002Z,29.740295
2019-06-20T13:15:36.660Z,29.740295
2019-06-20T13:16:36.805Z,29.700012
2019-06-20T13:17:36.876Z,29.689941
2019-06-20T13:18:38.530Z,29.659729
2019-06-20T13:19:36.575Z,29.639587
2019-06-20T13:20:36.593Z,29.619446
2019-06-20T13:21:36.615Z,29.569092
2019-06-20T13:22:36.551Z,29.518738
2019-06-20T13:23:37.308Z,29.468384
2019-06-20T13:24:36.928Z,29.407959
2019-06-20T13:25:36.658Z,29.367676
2019-06-20T13:26:38.384Z,29.29718
2019-06-20T13:27:36.805Z,29.246826
2019-06-20T13:29:36.883Z,29.136047
2019-06-20T13:30:37.377Z,29.065552
2019-06-20T13:31:50.361Z,28.984985
2019-06-20T13:32:37.015Z,28.91449
2019-06-20T13:33:36.845Z,28.823853
2019-06-20T13:34:36.941Z,28.723145
2019-06-20T13:35:37.632Z,28.622437
2019-06-20T13:36:36.980Z,28.551941
2019-06-20T13:37:37.009Z,28.501587
2019-06-20T13:38:36.924Z,28.421021
2019-06-20T13:39:37.170Z,28.350525
2019-06-20T13:40:37.288Z,28.280029
2019-06-20T13:41:37.271Z,28.209534
2019-06-20T13:42:37.854Z,28.128967
2019-06-20T13:44:38.439Z,27.977905
2019-06-20T13:45:38.014Z,27.927551
2019-06-20T13:46:38.831Z,27.877197
2019-06-20T13:47:37.650Z,27.857056
2019-06-20T13:48:37.605Z,27.796631
2019-06-20T13:49:37.598Z,27.756348
2019-06-20T13:50:37.536Z,27.675781
2019-06-20T13:51:37.766Z,27.65564
2019-06-20T13:52:38.691Z,27.756348
2019-06-20T13:53:37.897Z,27.716064
2019-06-20T13:54:37.856Z,27.65564
2019-06-20T13:55:37.952Z,27.554932
2019-06-20T13:56:40.993Z,27.434082
2019-06-20T13:57:38.954Z,27.333374
2019-06-20T13:58:38.175Z,27.232666
2019-06-20T13:59:39.081Z,27.131958
2019-06-20T14:00:39.530Z,27.081604
2019-06-20T14:01:38.659Z,27.051392
2019-06-20T14:02:38.369Z,27.03125
2019-06-20T14:03:38.643Z,27.011108
2019-06-20T14:04:38.865Z,26.980896
2019-06-20T14:05:38.621Z,26.960754
2019-06-20T14:06:39.916Z,26.9104
2019-06-20T14:07:42.466Z,26.860046
2019-06-20T14:08:39.796Z,26.809692
2019-06-20T14:09:40.408Z,26.829834
2019-06-20T14:10:41.693Z,26.870117
2019-06-20T14:11:38.987Z,26.839905
2019-06-20T14:12:38.983Z,26.870117
2019-06-20T14:13:38.913Z,26.90033
2019-06-20T14:14:39.583Z,26.930542
2019-06-20T14:15:40.167Z,27.021179
2019-06-20T14:16:39.093Z,27.111816
2019-06-20T14:17:39.274Z,27.232666
2019-06-20T14:18:40.211Z,27.424011
2019-06-20T14:19:40.872Z,27.53479
2019-06-20T14:20:40.953Z,27.585144
2019-06-20T14:21:41.237Z,27.554932
2019-06-20T14:22:40.221Z,27.524719
2019-06-20T14:23:39.582Z,27.494507
2019-06-20T14:24:41.225Z,27.40387
2019-06-20T14:25:41.232Z,27.343445
2019-06-20T14:26:43.671Z,27.28302
2019-06-20T14:27:41.240Z,27.212524
2019-06-20T14:28:40.228Z,27.131958
2019-06-20T14:29:41.069Z,27.091675
2019-06-20T14:30:41.833Z,27.021179
2019-06-20T14:31:41.491Z,26.960754
2019-06-20T14:32:40.377Z,26.940613
2019-06-20T14:33:40.404Z,26.9104
2019-06-20T14:34:41.516Z,26.870117
2019-06-20T14:35:40.878Z,26.839905
2019-06-20T14:36:41.675Z,26.809692
2019-06-20T14:37:40.940Z,26.749268
2019-06-20T14:38:41.751Z,26.708984
2019-06-20T14:39:42.737Z,26.65863
2019-06-20T14:40:41.151Z,26.608276
2019-06-20T14:41:40.950Z,26.557922
2019-06-20T14:42:41.758Z,26.507568
2019-06-20T14:43:41.698Z,26.467285
2019-06-20T14:44:41.570Z,26.457214
2019-06-20T14:45:40.953Z,26.437073
2019-06-20T14:46:51.674Z,26.416931
2019-06-20T14:47:50.030Z,26.376648
2019-06-20T14:48:42.324Z,26.336365
2019-06-20T14:50:41.623Z,26.306152
2019-06-20T14:51:42.476Z,26.286011
2019-06-20T14:52:41.582Z,26.27594
2019-06-20T14:53:41.761Z,26.265869
2019-06-20T14:54:41.849Z,26.225586
2019-06-20T14:55:41.971Z,26.205444
2019-06-20T14:56:42.224Z,26.205444
2019-06-20T14:57:42.146Z,26.165161
2019-06-20T14:58:42.422Z,26.134949
2019-06-20T14:59:42.127Z,26.165161
2019-06-20T15:00:42.424Z,26.165161
2019-06-20T15:01:42.364Z,26.185303
2019-06-20T15:02:42.300Z,26.205444
2019-06-20T15:03:43.290Z,26.265869
2019-06-20T15:04:42.328Z,26.306152
2019-06-20T15:05:42.599Z,26.356506
2019-06-20T15:06:42.717Z,26.416931
2019-06-20T15:07:42.798Z,26.457214
2019-06-20T15:08:42.844Z,26.467285
2019-06-20T15:09:43.284Z,26.467285
2019-06-20T15:10:44.163Z,26.487427
2019-06-20T15:11:43.209Z,26.457214
2019-06-20T15:12:43.219Z,26.416931
2019-06-20T15:13:43.357Z,26.386719
2019-06-20T15:14:43.396Z,26.386719
2019-06-20T15:15:43.478Z,26.40686
2019-06-20T15:16:43.536Z,26.376648
2019-06-20T15:17:43.638Z,26.386719
2019-06-20T15:18:45.411Z,26.376648
2019-06-20T15:19:43.770Z,26.346436
2019-06-20T15:20:44.128Z,26.336365
2019-06-20T15:21:44.127Z,26.306152
2019-06-20T15:22:44.207Z,26.235657
2019-06-20T15:23:44.468Z,26.225586
2019-06-20T15:24:45.483Z,26.205444
2019-06-20T15:25:44.627Z,26.195374
2019-06-20T15:26:44.520Z,26.195374
2019-06-20T15:27:44.503Z,26.225586
2019-06-20T15:28:44.857Z,26.225586
2019-06-20T15:29:44.744Z,26.235657
2019-06-20T15:30:44.895Z,26.235657
2019-06-20T15:31:44.771Z,26.225586
2019-06-20T15:32:54.134Z,26.235657
2019-06-20T15:33:44.999Z,26.225586
2019-06-20T15:34:45.237Z,26.265869
2019-06-20T15:35:45.911Z,26.27594
2019-06-20T15:36:45.513Z,26.286011
2019-06-20T15:37:45.254Z,26.316223
2019-06-20T15:38:45.367Z,26.376648
2019-06-20T15:39:45.585Z,26.437073
2019-06-20T15:40:45.647Z,26.497498
2019-06-20T15:41:45.777Z,26.567993
2019-06-20T15:42:45.987Z,26.789551
2019-06-20T15:43:45.897Z,27.011108
2019-06-20T15:44:46.122Z,27.202454
2019-06-20T15:45:46.081Z,27.303162
2019-06-20T15:46:46.106Z,27.28302
